createdAt,value
2023-05-11T00:00:09.215Z,56.99
2023-05-11T00:01:09.212Z,57.05
2023-05-11T00:02:09.316Z,56.77
2023-05-11T00:03:09.321Z,57.09
2023-05-11T00:04:09.276Z,56.87
2023-05-11T00:05:09.221Z,56.88
2023-05-11T00:06:09.263Z,56.95
2023-05-11T00:07:09.283Z,57.14
2023-05-11T00:08:09.249Z,56.80
2023-05-11T00:09:09.296Z,56.95
2023-05-11T00:10:09.278Z,56.78
2023-05-11T00:11:09.295Z,56.82
2023-05-11T00:12:09.322Z,57.19
2023-05-11T00:13:09.356Z,56.92
2023-05-11T00:14:09.356Z,56.49
2023-05-11T00:15:09.424Z,56.51
2023-05-11T00:16:09.450Z,56.21
2023-05-11T00:17:09.424Z,56.18
2023-05-11T00:18:09.468Z,56.57
2023-05-11T00:19:09.469Z,56.75
2023-05-11T00:20:09.502Z,56.82
2023-05-11T00:21:09.560Z,56.66
2023-05-11T00:22:09.570Z,56.86
2023-05-11T00:23:09.598Z,56.34
2023-05-11T00:24:10.084Z,56.85
2023-05-11T00:25:09.596Z,56.32
2023-05-11T00:26:09.620Z,56.51
2023-05-11T00:27:09.669Z,56.39
2023-05-11T00:28:09.686Z,56.48
2023-05-11T00:29:09.736Z,56.53
2023-05-11T00:30:09.723Z,56.12
2023-05-11T00:31:09.738Z,56.43
2023-05-11T00:32:09.763Z,56.90
2023-05-11T00:33:09.769Z,56.59
2023-05-11T00:34:09.770Z,56.23
2023-05-11T00:35:09.818Z,56.16
2023-05-11T00:36:09.821Z,56.72
2023-05-11T00:37:09.864Z,56.70
2023-05-11T00:38:09.861Z,56.68
2023-05-11T00:39:10.089Z,56.39
2023-05-11T00:40:09.905Z,56.59
2023-05-11T00:41:09.973Z,56.76
2023-05-11T00:42:09.992Z,56.81
2023-05-11T00:43:10.003Z,56.63
2023-05-11T00:44:10.079Z,56.79
2023-05-11T00:45:10.082Z,56.73
2023-05-11T00:46:10.059Z,56.32
2023-05-11T00:47:10.176Z,56.81
2023-05-11T00:48:10.130Z,56.58
2023-05-11T00:49:10.151Z,56.97
2023-05-11T00:50:11.060Z,57.15
2023-05-11T00:51:10.197Z,56.94
2023-05-11T00:52:10.214Z,56.45
2023-05-11T00:53:10.244Z,56.14
2023-05-11T00:54:10.243Z,56.10
2023-05-11T00:55:10.282Z,56.38
2023-05-11T00:56:10.284Z,55.91
2023-05-11T00:57:10.368Z,55.81
2023-05-11T00:58:10.337Z,56.16
2023-05-11T00:59:10.601Z,56.22
2023-05-11T01:00:10.434Z,55.42
2023-05-11T01:01:10.474Z,53.93
2023-05-11T01:02:10.470Z,53.77
2023-05-11T01:03:10.475Z,53.74
2023-05-11T01:04:10.509Z,53.67
2023-05-11T01:05:10.523Z,54.12
2023-05-11T01:06:10.559Z,54.00
2023-05-11T01:07:10.637Z,53.68
2023-05-11T01:08:10.701Z,54.29
2023-05-11T01:09:11.111Z,54.77
2023-05-11T01:10:10.751Z,55.12
2023-05-11T01:11:10.819Z,55.29
2023-05-11T01:12:10.883Z,54.05
2023-05-11T01:13:10.962Z,54.05
2023-05-11T01:14:10.978Z,53.73
2023-05-11T01:15:11.040Z,54.43
2023-05-11T01:16:11.123Z,53.97
2023-05-11T01:17:11.164Z,54.18
2023-05-11T01:18:11.318Z,54.34
2023-05-11T01:19:11.316Z,55.08
2023-05-11T01:20:11.290Z,54.69
2023-05-11T01:21:11.383Z,54.75
2023-05-11T01:22:11.437Z,54.67
2023-05-11T01:23:11.460Z,54.97
2023-05-11T01:24:11.501Z,55.21
2023-05-11T01:25:11.593Z,55.47
2023-05-11T01:26:11.650Z,55.31
2023-05-11T01:27:11.661Z,55.29
2023-05-11T01:28:11.740Z,55.10
2023-05-11T01:29:12.090Z,55.15
2023-05-11T01:30:11.867Z,54.93
2023-05-11T01:31:11.928Z,54.42
2023-05-11T01:32:11.998Z,54.85
2023-05-11T01:33:12.084Z,54.88
2023-05-11T01:34:12.123Z,54.96
2023-05-11T01:35:12.199Z,55.15
2023-05-11T01:36:12.206Z,55.11
2023-05-11T01:37:12.320Z,55.12
2023-05-11T01:38:12.393Z,55.22
2023-05-11T01:39:12.445Z,55.50
2023-05-11T01:40:12.485Z,55.06
2023-05-11T01:41:12.551Z,54.93
2023-05-11T01:42:12.593Z,54.79
2023-05-11T01:43:12.690Z,54.73
2023-05-11T01:44:12.739Z,54.78
2023-05-11T01:45:12.764Z,54.67
2023-05-11T01:46:12.901Z,54.84
2023-05-11T01:47:12.900Z,54.67
2023-05-11T01:48:12.981Z,54.82
2023-05-11T01:49:12.984Z,54.93
2023-05-11T01:50:13.045Z,54.55
2023-05-11T01:51:13.063Z,54.82
2023-05-11T01:52:13.097Z,54.73
2023-05-11T01:53:13.106Z,55.13
2023-05-11T01:54:13.217Z,55.36
2023-05-11T01:55:13.196Z,55.19
2023-05-11T01:56:13.226Z,54.93
2023-05-11T01:57:13.233Z,54.80
2023-05-11T01:58:13.252Z,54.83
2023-05-11T01:59:13.301Z,54.78
2023-05-11T02:00:13.302Z,54.62
2023-05-11T02:01:13.344Z,54.64
2023-05-11T02:02:13.372Z,54.54
2023-05-11T02:03:13.461Z,54.84
2023-05-11T02:04:13.487Z,55.04
2023-05-11T02:05:13.525Z,54.71
2023-05-11T02:06:13.533Z,54.88
2023-05-11T02:07:13.545Z,54.90
2023-05-11T02:08:13.583Z,54.33
2023-05-11T02:09:13.639Z,54.87
2023-05-11T02:10:13.588Z,55.04
2023-05-11T02:11:13.620Z,55.29
2023-05-11T02:12:13.653Z,55.44
2023-05-11T02:13:13.654Z,55.04
2023-05-11T02:14:14.106Z,55.38
2023-05-11T02:15:13.627Z,55.60
2023-05-11T02:16:13.659Z,55.58
2023-05-11T02:17:13.620Z,55.64
2023-05-11T02:18:13.637Z,55.35
2023-05-11T02:19:13.627Z,55.16
2023-05-11T02:20:13.637Z,54.76
2023-05-11T02:21:13.611Z,55.02
2023-05-11T02:22:13.669Z,54.72
2023-05-11T02:23:13.725Z,54.37
2023-05-11T02:24:13.744Z,54.00
2023-05-11T02:25:13.788Z,54.10
2023-05-11T02:26:13.818Z,53.37
2023-05-11T02:27:13.855Z,53.54
2023-05-11T02:28:13.931Z,53.69
2023-05-11T02:29:13.985Z,54.00
2023-05-11T02:30:14.137Z,54.14
2023-05-11T02:31:13.971Z,54.30
2023-05-11T02:32:13.938Z,54.01
2023-05-11T02:33:13.940Z,53.78
2023-05-11T02:34:13.933Z,53.99
2023-05-11T02:35:14.106Z,54.01
2023-05-11T02:36:13.961Z,54.43
2023-05-11T02:37:13.954Z,54.74
2023-05-11T02:38:13.934Z,53.96
2023-05-11T02:39:13.957Z,54.27
2023-05-11T02:40:14.143Z,54.39
2023-05-11T02:41:13.980Z,55.20
2023-05-11T02:42:13.975Z,55.02
2023-05-11T02:43:13.985Z,55.24
2023-05-11T02:44:14.024Z,55.02
2023-05-11T02:45:14.116Z,54.75
2023-05-11T02:46:14.052Z,54.81
2023-05-11T02:47:14.004Z,55.08
2023-05-11T02:48:14.032Z,54.80
2023-05-11T02:49:14.071Z,54.75
2023-05-11T02:50:14.076Z,54.29
2023-05-11T02:51:14.119Z,54.44
2023-05-11T02:52:14.121Z,54.51
2023-05-11T02:53:14.135Z,54.42
2023-05-11T02:54:14.128Z,53.87
2023-05-11T02:55:14.176Z,54.25
2023-05-11T02:56:14.186Z,54.39
2023-05-11T02:57:14.198Z,54.62
2023-05-11T02:58:14.291Z,54.52
2023-05-11T02:59:14.219Z,54.08
2023-05-11T03:00:14.246Z,54.16
2023-05-11T03:01:14.378Z,54.35
2023-05-11T03:02:14.355Z,54.61
2023-05-11T03:03:14.383Z,54.71
2023-05-11T03:04:14.356Z,55.13
2023-05-11T03:05:14.351Z,55.36
2023-05-11T03:06:14.389Z,55.31
2023-05-11T03:07:14.393Z,54.96
2023-05-11T03:08:14.384Z,55.06
2023-05-11T03:09:14.406Z,55.10
2023-05-11T03:10:14.443Z,54.94
2023-05-11T03:11:14.445Z,55.41
2023-05-11T03:12:14.474Z,55.42
2023-05-11T03:13:14.462Z,55.39
2023-05-11T03:14:14.490Z,55.50
2023-05-11T03:15:14.514Z,55.20
2023-05-11T03:16:14.583Z,55.31
2023-05-11T03:17:14.589Z,55.42
2023-05-11T03:18:14.579Z,55.23
2023-05-11T03:19:14.588Z,55.29
2023-05-11T03:20:14.624Z,55.31
2023-05-11T03:21:14.617Z,54.97
2023-05-11T03:22:14.680Z,55.40
2023-05-11T03:23:14.649Z,55.97
2023-05-11T03:24:14.673Z,55.93
2023-05-11T03:25:14.682Z,56.02
2023-05-11T03:26:14.695Z,56.12
2023-05-11T03:27:14.738Z,55.47
2023-05-11T03:28:14.784Z,55.30
2023-05-11T03:29:14.788Z,55.41
2023-05-11T03:30:14.781Z,55.51
2023-05-11T03:31:14.796Z,55.82
2023-05-11T03:32:14.843Z,55.95
2023-05-11T03:33:14.858Z,55.36
2023-05-11T03:34:14.849Z,55.56
2023-05-11T03:35:14.907Z,55.58
2023-05-11T03:36:14.896Z,55.64
2023-05-11T03:37:14.908Z,55.52
2023-05-11T03:38:14.943Z,55.28
2023-05-11T03:39:14.963Z,55.58
2023-05-11T03:40:14.994Z,55.91
2023-05-11T03:41:14.999Z,55.41
2023-05-11T03:42:15.016Z,55.44
2023-05-11T03:43:15.274Z,55.52
2023-05-11T03:44:15.043Z,55.35
2023-05-11T03:45:15.070Z,55.27
2023-05-11T03:46:15.128Z,55.28
2023-05-11T03:47:15.118Z,55.17
2023-05-11T03:48:15.151Z,55.19
2023-05-11T03:49:15.136Z,55.09
2023-05-11T03:50:15.187Z,54.91
2023-05-11T03:51:15.177Z,55.10
2023-05-11T03:52:15.195Z,55.36
2023-05-11T03:53:15.211Z,54.76
2023-05-11T03:54:15.244Z,54.45
2023-05-11T03:55:15.240Z,54.54
2023-05-11T03:56:15.228Z,54.86
2023-05-11T03:57:15.237Z,54.73
2023-05-11T03:58:15.326Z,54.83
2023-05-11T03:59:15.301Z,54.87
2023-05-11T04:00:15.463Z,55.22
2023-05-11T04:01:15.360Z,55.18
2023-05-11T04:02:15.412Z,54.70
2023-05-11T04:03:15.482Z,55.24
2023-05-11T04:04:15.403Z,55.34
2023-05-11T04:05:15.661Z,55.03
2023-05-11T04:06:15.398Z,55.17
2023-05-11T04:07:15.457Z,55.36
2023-05-11T04:08:15.472Z,55.65
2023-05-11T04:09:15.458Z,55.71
2023-05-11T04:10:15.548Z,55.57
2023-05-11T04:11:15.517Z,55.23
2023-05-11T04:12:15.516Z,55.38
2023-05-11T04:13:15.522Z,55.07
2023-05-11T04:14:15.560Z,54.99
2023-05-11T04:15:15.772Z,55.18
2023-05-11T04:16:15.674Z,55.53
2023-05-11T04:17:15.591Z,55.50
2023-05-11T04:18:15.600Z,55.62
2023-05-11T04:19:15.627Z,55.41
2023-05-11T04:20:15.839Z,55.33
2023-05-11T04:21:15.668Z,55.46
2023-05-11T04:22:15.731Z,55.70
2023-05-11T04:23:15.783Z,55.14
2023-05-11T04:24:15.794Z,55.08
2023-05-11T04:25:15.818Z,55.33
2023-05-11T04:26:15.829Z,55.01
2023-05-11T04:27:15.817Z,54.91
2023-05-11T04:28:15.875Z,55.36
2023-05-11T04:29:15.866Z,55.75
2023-05-11T04:30:16.114Z,55.30
2023-05-11T04:31:16.023Z,55.74
2023-05-11T04:32:15.981Z,55.74
2023-05-11T04:33:15.978Z,55.98
2023-05-11T04:34:16.010Z,55.69
2023-05-11T04:35:16.159Z,55.83
2023-05-11T04:36:16.093Z,55.21
2023-05-11T04:37:16.129Z,55.22
2023-05-11T04:38:16.143Z,55.08
2023-05-11T04:39:16.189Z,55.06
2023-05-11T04:40:16.920Z,54.79
2023-05-11T04:41:16.182Z,54.67
2023-05-11T04:42:16.255Z,54.68
2023-05-11T04:43:16.287Z,54.83
2023-05-11T04:44:16.308Z,54.93
2023-05-11T04:45:16.665Z,55.30
2023-05-11T04:46:16.458Z,55.80
2023-05-11T04:47:16.470Z,55.97
2023-05-11T04:48:18.095Z,55.86
2023-05-11T04:49:16.480Z,55.18
2023-05-11T04:50:16.581Z,55.07
2023-05-11T04:51:16.461Z,55.17
2023-05-11T04:52:16.462Z,55.33
2023-05-11T04:53:16.457Z,55.14
2023-05-11T04:54:16.484Z,54.51
2023-05-11T04:55:16.430Z,54.85
2023-05-11T04:56:16.421Z,54.77
2023-05-11T04:57:16.439Z,54.78
2023-05-11T04:58:16.427Z,54.52
2023-05-11T04:59:16.408Z,54.93
2023-05-11T05:00:16.887Z,55.41
2023-05-11T05:01:16.498Z,55.95
2023-05-11T05:02:16.407Z,55.66
2023-05-11T05:03:16.427Z,56.26
2023-05-11T05:04:16.510Z,56.01
2023-05-11T05:05:16.381Z,55.70
2023-05-11T05:06:16.396Z,55.62
2023-05-11T05:07:16.379Z,55.72
2023-05-11T05:08:16.326Z,55.66
2023-05-11T05:09:16.355Z,55.17
2023-05-11T05:10:16.461Z,55.40
2023-05-11T05:11:16.352Z,55.72
2023-05-11T05:12:16.375Z,55.89
2023-05-11T05:13:16.310Z,55.62
2023-05-11T05:14:16.331Z,55.53
2023-05-11T05:15:16.347Z,55.12
2023-05-11T05:16:16.329Z,55.13
2023-05-11T05:17:16.290Z,55.07
2023-05-11T05:18:16.287Z,55.28
2023-05-11T05:19:16.300Z,55.19
2023-05-11T05:20:16.765Z,55.42
2023-05-11T05:21:16.266Z,55.81
2023-05-11T05:22:16.263Z,56.03
2023-05-11T05:23:16.236Z,56.11
2023-05-11T05:24:16.240Z,55.83
2023-05-11T05:25:16.252Z,55.53
2023-05-11T05:26:16.293Z,55.74
2023-05-11T05:27:16.380Z,55.56
2023-05-11T05:28:16.405Z,55.67
2023-05-11T05:29:16.489Z,55.83
2023-05-11T05:30:16.813Z,55.95
2023-05-11T05:31:16.752Z,55.48
2023-05-11T05:32:16.685Z,55.23
2023-05-11T05:33:16.708Z,55.18
2023-05-11T05:34:16.837Z,55.20
2023-05-11T05:35:17.711Z,55.21
2023-05-11T05:36:16.812Z,55.33
2023-05-11T05:37:16.852Z,55.15
2023-05-11T05:38:16.916Z,55.50
2023-05-11T05:39:16.927Z,55.90
2023-05-11T05:40:17.271Z,56.11
2023-05-11T05:41:17.070Z,56.41
2023-05-11T05:42:17.075Z,55.60
2023-05-11T05:43:17.129Z,55.32
2023-05-11T05:44:17.171Z,55.20
2023-05-11T05:45:17.247Z,55.44
2023-05-11T05:46:17.322Z,55.50
2023-05-11T05:47:17.341Z,55.85
2023-05-11T05:48:17.411Z,55.85
2023-05-11T05:49:17.446Z,55.13
2023-05-11T05:50:17.822Z,54.86
2023-05-11T05:51:17.556Z,55.03
2023-05-11T05:52:17.594Z,54.34
2023-05-11T05:53:17.663Z,54.41
2023-05-11T05:54:17.698Z,54.86
2023-05-11T05:55:18.195Z,55.04
2023-05-11T05:56:17.768Z,55.38
2023-05-11T05:57:17.780Z,55.77
2023-05-11T05:58:17.820Z,53.76
2023-05-11T05:59:17.847Z,55.04
2023-05-11T06:00:18.453Z,54.82
2023-05-11T06:01:17.889Z,54.84
2023-05-11T06:02:17.929Z,54.25
2023-05-11T06:03:18.097Z,55.04
2023-05-11T06:04:18.105Z,55.42
2023-05-11T06:05:18.175Z,55.17
2023-05-11T06:06:18.112Z,55.65
2023-05-11T06:07:18.153Z,55.50
2023-05-11T06:08:19.138Z,55.41
2023-05-11T06:09:18.175Z,55.45
2023-05-11T06:10:18.332Z,55.50
2023-05-11T06:11:18.141Z,56.14
2023-05-11T06:12:18.101Z,55.07
2023-05-11T06:13:18.146Z,55.63
2023-05-11T06:14:18.108Z,55.28
2023-05-11T06:15:18.199Z,55.62
2023-05-11T06:16:18.168Z,55.40
2023-05-11T06:17:18.178Z,55.40
2023-05-11T06:18:18.256Z,55.09
2023-05-11T06:19:18.329Z,55.12
2023-05-11T06:20:18.645Z,53.83
2023-05-11T06:21:18.455Z,53.90
2023-05-11T06:22:18.526Z,54.64
2023-05-11T06:23:18.546Z,54.98
2023-05-11T06:24:18.607Z,55.16
2023-05-11T06:25:18.697Z,54.42
2023-05-11T06:26:18.753Z,54.21
2023-05-11T06:27:18.840Z,54.45
2023-05-11T06:28:18.849Z,54.19
2023-05-11T06:29:18.932Z,54.51
2023-05-11T06:30:19.457Z,54.27
2023-05-11T06:31:19.101Z,55.03
2023-05-11T06:32:19.048Z,55.16
2023-05-11T06:33:19.069Z,54.45
2023-05-11T06:34:19.048Z,54.37
2023-05-11T06:35:19.189Z,54.47
2023-05-11T06:36:19.030Z,54.76
2023-05-11T06:37:19.063Z,54.82
2023-05-11T06:38:19.079Z,54.64
2023-05-11T06:39:19.065Z,54.04
2023-05-11T06:40:19.269Z,54.77
2023-05-11T06:41:19.072Z,54.75
2023-05-11T06:42:19.086Z,55.55
2023-05-11T06:43:19.078Z,55.60
2023-05-11T06:44:19.085Z,55.77
2023-05-11T06:45:19.104Z,55.00
2023-05-11T06:46:19.237Z,55.04
2023-05-11T06:47:19.113Z,54.94
2023-05-11T06:48:19.107Z,55.18
2023-05-11T06:49:19.117Z,55.38
2023-05-11T06:50:21.193Z,55.78
2023-05-11T06:51:19.103Z,55.83
2023-05-11T06:52:19.155Z,55.14
2023-05-11T06:53:19.146Z,54.85
2023-05-11T06:54:19.177Z,55.62
2023-05-11T06:55:19.227Z,55.35
2023-05-11T06:56:19.204Z,55.33
2023-05-11T06:57:19.282Z,54.82
2023-05-11T06:58:19.323Z,54.63
2023-05-11T06:59:19.337Z,55.02
2023-05-11T07:00:19.561Z,55.15
2023-05-11T07:01:19.498Z,55.21
2023-05-11T07:02:19.462Z,55.36
2023-05-11T07:03:19.595Z,56.15
2023-05-11T07:04:19.678Z,55.62
2023-05-11T07:05:19.666Z,55.49
2023-05-11T07:06:20.201Z,56.52
2023-05-11T07:07:19.761Z,55.86
2023-05-11T07:08:19.809Z,55.69
2023-05-11T07:09:19.814Z,54.62
2023-05-11T07:10:20.026Z,54.09
2023-05-11T07:11:20.241Z,53.74
2023-05-11T07:12:19.850Z,54.19
2023-05-11T07:13:19.911Z,54.62
2023-05-11T07:14:19.863Z,53.53
2023-05-11T07:15:19.868Z,53.59
2023-05-11T07:16:20.252Z,54.15
2023-05-11T07:17:19.964Z,53.67
2023-05-11T07:18:19.970Z,53.36
2023-05-11T07:19:19.925Z,53.44
2023-05-11T07:20:20.081Z,53.45
2023-05-11T07:21:20.209Z,53.82
2023-05-11T07:22:19.955Z,54.21
2023-05-11T07:23:19.951Z,54.15
2023-05-11T07:24:20.026Z,53.69
2023-05-11T07:25:20.049Z,53.79
2023-05-11T07:26:20.233Z,53.96
2023-05-11T07:27:20.058Z,54.03
2023-05-11T07:28:20.093Z,53.16
2023-05-11T07:29:20.100Z,53.09
2023-05-11T07:30:20.517Z,52.86
2023-05-11T07:31:20.231Z,53.02
2023-05-11T07:32:20.226Z,53.25
2023-05-11T07:33:20.131Z,53.67
2023-05-11T07:34:20.158Z,53.23
2023-05-11T07:35:22.068Z,53.11
2023-05-11T07:36:20.766Z,54.36
2023-05-11T07:37:20.462Z,54.38
2023-05-11T07:38:20.396Z,54.46
2023-05-11T07:39:20.388Z,54.28
2023-05-11T07:40:20.705Z,54.51
2023-05-11T07:41:20.717Z,53.75
2023-05-11T07:42:20.572Z,53.23
2023-05-11T07:43:20.550Z,53.40
2023-05-11T07:44:20.604Z,53.36
2023-05-11T07:45:20.619Z,53.63
2023-05-11T07:46:20.742Z,53.72
2023-05-11T07:47:20.687Z,53.79
2023-05-11T07:48:20.750Z,54.20
2023-05-11T07:49:25.387Z,53.38
2023-05-11T07:50:24.147Z,54.64
2023-05-11T07:51:20.752Z,53.98
2023-05-11T07:52:20.664Z,54.08
2023-05-11T07:53:20.676Z,53.56
2023-05-11T07:54:21.722Z,54.56
2023-05-11T07:55:20.952Z,56.53
2023-05-11T07:56:20.672Z,55.07
2023-05-11T07:57:20.637Z,56.52
2023-05-11T07:58:20.651Z,55.22
2023-05-11T07:59:20.656Z,54.81
2023-05-11T08:00:20.845Z,54.80
2023-05-11T08:01:20.716Z,55.11
2023-05-11T08:02:20.678Z,55.28
2023-05-11T08:03:20.671Z,54.59
2023-05-11T08:04:20.649Z,55.30
2023-05-11T08:05:20.834Z,55.26
2023-05-11T08:06:20.652Z,54.64
2023-05-11T08:07:20.620Z,54.07
2023-05-11T08:08:21.602Z,53.84
2023-05-11T08:09:20.583Z,55.12
2023-05-11T08:10:20.790Z,55.42
2023-05-11T08:11:20.721Z,55.18
2023-05-11T08:12:20.815Z,55.01
2023-05-11T08:13:20.602Z,55.08
2023-05-11T08:14:20.639Z,55.29
2023-05-11T08:15:20.658Z,55.19
2023-05-11T08:16:20.774Z,54.90
2023-05-11T08:17:20.540Z,55.34
2023-05-11T08:18:20.572Z,54.36
2023-05-11T08:19:20.511Z,53.15
2023-05-11T08:20:20.555Z,54.78
2023-05-11T08:21:20.731Z,54.90
2023-05-11T08:22:20.570Z,54.63
2023-05-11T08:23:20.566Z,54.74
2023-05-11T08:24:20.665Z,54.36
2023-05-11T08:25:20.767Z,54.60
2023-05-11T08:26:20.758Z,54.88
2023-05-11T08:27:20.813Z,55.03
2023-05-11T08:28:20.831Z,53.65
2023-05-11T08:29:20.862Z,54.27
2023-05-11T08:30:20.931Z,54.08
2023-05-11T08:31:20.981Z,53.96
2023-05-11T08:32:21.016Z,53.63
2023-05-11T08:33:36.478Z,53.24
2023-05-11T08:34:22.090Z,53.90
2023-05-11T08:35:21.324Z,53.92
2023-05-11T08:36:21.014Z,54.39
2023-05-11T08:37:21.009Z,53.92
2023-05-11T08:38:21.009Z,53.33
2023-05-11T08:39:33.195Z,52.41
2023-05-11T08:40:22.037Z,52.65
2023-05-11T08:41:21.017Z,55.01
2023-05-11T08:42:21.014Z,55.95
2023-05-11T08:43:20.960Z,55.37
2023-05-11T08:44:20.968Z,55.90
2023-05-11T08:45:21.079Z,54.70
2023-05-11T08:46:21.262Z,55.46
2023-05-11T08:47:23.434Z,54.71
2023-05-11T08:48:20.908Z,54.24
2023-05-11T08:49:20.954Z,53.71
2023-05-11T08:50:20.925Z,54.75
2023-05-11T08:51:20.915Z,54.70
2023-05-11T08:52:20.927Z,54.86
2023-05-11T08:53:20.892Z,55.12
2023-05-11T08:54:20.886Z,54.78
2023-05-11T08:55:20.954Z,54.43
2023-05-11T08:56:20.898Z,54.67
2023-05-11T08:57:20.911Z,54.48
2023-05-11T08:58:20.849Z,54.44
2023-05-11T08:59:20.853Z,54.13
2023-05-11T09:00:20.878Z,54.35
2023-05-11T09:01:21.326Z,54.26
2023-05-11T09:02:20.864Z,54.38
2023-05-11T09:03:21.038Z,54.88
2023-05-11T09:04:20.841Z,54.79
2023-05-11T09:05:21.067Z,54.83
2023-05-11T09:06:21.236Z,54.32
2023-05-11T09:07:20.815Z,55.65
2023-05-11T09:08:20.823Z,55.56
2023-05-11T09:09:20.795Z,54.66
2023-05-11T09:10:20.808Z,54.69
2023-05-11T09:11:20.801Z,54.43
2023-05-11T09:12:20.754Z,54.63
2023-05-11T09:13:20.753Z,54.32
2023-05-11T09:15:21.797Z,54.48
2023-05-11T09:16:36.306Z,53.66
2023-05-11T09:17:21.796Z,53.36
2023-05-11T09:18:20.801Z,55.26
2023-05-11T09:19:20.739Z,55.99
2023-05-11T09:20:20.897Z,55.59
2023-05-11T09:21:21.267Z,54.88
2023-05-11T09:22:20.798Z,54.57
2023-05-11T09:23:20.850Z,53.95
2023-05-11T09:24:20.950Z,54.23
2023-05-11T09:25:20.993Z,53.98
2023-05-11T09:26:20.835Z,54.53
2023-05-11T09:27:21.665Z,53.67
2023-05-11T09:28:25.411Z,53.52
2023-05-11T09:29:20.864Z,55.35
2023-05-11T09:30:22.518Z,55.03
2023-05-11T09:31:20.981Z,55.15
2023-05-11T09:32:21.297Z,54.85
2023-05-11T09:33:20.970Z,54.82
2023-05-11T09:34:21.015Z,55.16
2023-05-11T09:35:21.220Z,55.35
2023-05-11T09:36:21.000Z,55.25
2023-05-11T09:37:21.002Z,55.18
2023-05-11T09:38:21.026Z,54.72
2023-05-11T09:40:27.510Z,55.43
2023-05-11T09:41:22.078Z,54.91
2023-05-11T09:42:21.252Z,55.63
2023-05-11T09:43:21.045Z,56.06
2023-05-11T09:44:21.120Z,55.80
2023-05-11T09:45:21.127Z,55.46
2023-05-11T09:46:21.014Z,55.94
2023-05-11T09:47:21.262Z,56.36
2023-05-11T09:48:21.178Z,56.50
2023-05-11T09:49:20.991Z,55.41
2023-05-11T09:50:26.482Z,55.49
2023-05-11T09:51:21.982Z,55.77
2023-05-11T09:52:21.437Z,56.59
2023-05-11T09:53:20.987Z,56.04
2023-05-11T09:54:20.990Z,55.83
2023-05-11T09:55:21.051Z,55.19
2023-05-11T09:56:20.947Z,55.37
2023-05-11T09:57:21.261Z,55.35
2023-05-11T09:58:20.939Z,56.22
2023-05-11T09:59:20.930Z,57.16
2023-05-11T10:00:20.927Z,57.31
2023-05-11T10:01:20.958Z,57.46
2023-05-11T10:02:21.440Z,56.95
2023-05-11T10:03:21.024Z,57.11
2023-05-11T10:04:23.725Z,57.10
2023-05-11T10:05:20.969Z,56.23
2023-05-11T10:06:20.902Z,56.67
2023-05-11T10:07:21.285Z,56.29
2023-05-11T10:08:20.868Z,56.44
2023-05-11T10:09:20.851Z,55.81
2023-05-11T10:10:20.936Z,55.88
2023-05-11T10:11:20.846Z,55.79
2023-05-11T10:12:21.278Z,56.22
2023-05-11T10:13:20.851Z,57.01
2023-05-11T10:14:20.809Z,57.13
2023-05-11T10:15:20.991Z,56.19
2023-05-11T10:16:20.828Z,56.83
2023-05-11T10:17:21.271Z,55.41
2023-05-11T10:18:20.806Z,55.29
2023-05-11T10:19:20.790Z,55.46
2023-05-11T10:20:21.077Z,55.06
2023-05-11T10:21:20.785Z,55.27
2023-05-11T10:22:21.273Z,55.03
2023-05-11T10:23:20.779Z,55.65
2023-05-11T10:24:20.806Z,56.11
2023-05-11T10:25:20.750Z,56.43
2023-05-11T10:26:20.751Z,55.33
2023-05-11T10:27:20.746Z,55.04
2023-05-11T10:28:20.752Z,55.73
2023-05-11T10:29:29.791Z,56.02
2023-05-11T10:30:20.934Z,56.18
2023-05-11T10:31:20.737Z,55.74
2023-05-11T10:32:20.795Z,55.46
2023-05-11T10:33:20.713Z,55.76
2023-05-11T10:34:20.705Z,55.58
2023-05-11T10:35:20.697Z,54.23
2023-05-11T10:36:20.666Z,55.00
2023-05-11T10:37:20.769Z,54.64
2023-05-11T10:38:20.666Z,54.48
2023-05-11T10:39:20.648Z,54.73
2023-05-11T10:40:20.762Z,55.12
2023-05-11T10:41:20.616Z,55.56
2023-05-11T10:42:20.816Z,55.03
2023-05-11T10:43:20.603Z,55.44
2023-05-11T10:44:20.607Z,55.69
2023-05-11T10:45:20.619Z,56.30
2023-05-11T10:46:20.670Z,55.78
2023-05-11T10:47:20.832Z,55.91
2023-05-11T10:48:20.573Z,55.51
2023-05-11T10:49:20.589Z,55.75
2023-05-11T10:50:20.822Z,55.62
2023-05-11T10:51:20.563Z,55.97
2023-05-11T10:52:20.560Z,55.88
2023-05-11T10:53:20.544Z,55.82
2023-05-11T10:54:20.561Z,56.43
2023-05-11T10:55:20.664Z,56.77
2023-05-11T10:56:20.525Z,55.48
2023-05-11T10:57:20.765Z,55.04
2023-05-11T10:58:20.515Z,55.62
2023-05-11T10:59:20.515Z,55.65
2023-05-11T11:00:20.761Z,56.05
2023-05-11T11:01:20.575Z,56.29
2023-05-11T11:02:20.471Z,55.57
2023-05-11T11:03:20.473Z,55.11
2023-05-11T11:04:20.506Z,54.88
2023-05-11T11:05:20.766Z,54.65
2023-05-11T11:06:20.483Z,54.64
2023-05-11T11:07:20.818Z,55.17
2023-05-11T11:08:21.446Z,54.71
2023-05-11T11:09:20.428Z,53.64
2023-05-11T11:10:20.709Z,54.69
2023-05-11T11:11:20.500Z,55.10
2023-05-11T11:12:20.774Z,55.75
2023-05-11T11:13:20.596Z,55.23
2023-05-11T11:14:20.652Z,55.46
2023-05-11T11:15:20.799Z,53.11
2023-05-11T11:16:20.823Z,54.36
2023-05-11T11:17:21.337Z,54.84
2023-05-11T11:18:20.963Z,54.59
2023-05-11T11:19:20.964Z,52.92
2023-05-11T11:20:21.016Z,55.00
2023-05-11T11:21:21.079Z,53.98
2023-05-11T11:22:21.192Z,53.98
2023-05-11T11:23:21.209Z,52.72
2023-05-11T11:24:21.248Z,52.97
2023-05-11T11:25:21.298Z,52.74
2023-05-11T11:26:21.365Z,53.39
2023-05-11T11:27:21.794Z,54.01
2023-05-11T11:28:21.590Z,54.75
2023-05-11T11:29:21.692Z,53.71
2023-05-11T11:30:21.796Z,53.21
2023-05-11T11:31:21.916Z,52.73
2023-05-11T11:32:21.913Z,53.09
2023-05-11T11:33:22.007Z,53.09
2023-05-11T11:34:22.010Z,53.42
2023-05-11T11:35:22.093Z,54.08
2023-05-11T11:36:22.122Z,53.79
2023-05-11T11:37:22.321Z,54.07
2023-05-11T11:38:22.324Z,52.82
2023-05-11T11:39:22.276Z,53.77
2023-05-11T11:40:22.346Z,55.32
2023-05-11T11:41:22.392Z,53.65
2023-05-11T11:42:22.819Z,54.01
2023-05-11T11:43:22.463Z,54.66
2023-05-11T11:44:22.702Z,55.59
2023-05-11T11:45:22.588Z,53.22
2023-05-11T11:46:22.602Z,53.47
2023-05-11T11:47:22.766Z,53.29
2023-05-11T11:48:22.621Z,53.18
2023-05-11T11:49:22.633Z,53.39
2023-05-11T11:50:22.671Z,54.52
2023-05-11T11:51:22.704Z,54.53
2023-05-11T11:52:22.790Z,54.48
2023-05-11T11:53:22.705Z,55.04
2023-05-11T11:54:22.770Z,55.27
2023-05-11T11:55:22.790Z,53.78
2023-05-11T11:56:22.777Z,54.80
2023-05-11T11:57:22.857Z,54.34
2023-05-11T11:58:22.829Z,53.88
2023-05-11T11:59:22.885Z,54.76
2023-05-11T12:00:22.865Z,52.38
2023-05-11T12:01:22.873Z,52.32
2023-05-11T12:02:23.027Z,52.28
2023-05-11T12:03:23.124Z,52.72
2023-05-11T12:04:23.114Z,52.77
2023-05-11T12:05:23.628Z,53.63
2023-05-11T12:06:25.033Z,54.07
2023-05-11T12:07:22.956Z,53.29
2023-05-11T12:08:22.966Z,53.70
2023-05-11T12:09:23.067Z,53.78
2023-05-11T12:10:22.904Z,54.04
2023-05-11T12:11:22.950Z,54.61
2023-05-11T12:12:22.968Z,54.03
2023-05-11T12:13:22.936Z,53.87
2023-05-11T12:14:22.921Z,53.04
2023-05-11T12:15:22.907Z,51.84
2023-05-11T12:16:22.963Z,53.44
2023-05-11T12:17:22.956Z,54.01
2023-05-11T12:18:22.959Z,51.81
2023-05-11T12:19:22.876Z,52.81
2023-05-11T12:20:22.882Z,52.46
2023-05-11T12:21:22.956Z,53.21
2023-05-11T12:22:22.850Z,52.22
2023-05-11T12:23:22.832Z,51.32
2023-05-11T12:24:22.866Z,52.49
2023-05-11T12:25:23.075Z,52.40
2023-05-11T12:26:22.846Z,52.53
2023-05-11T12:27:22.820Z,52.29
2023-05-11T12:28:22.820Z,52.82
2023-05-11T12:29:22.826Z,51.96
2023-05-11T12:30:22.802Z,52.62
2023-05-11T12:31:22.839Z,52.50
2023-05-11T12:32:22.776Z,51.71
2023-05-11T12:33:22.866Z,51.68
2023-05-11T12:34:22.783Z,52.77
2023-05-11T12:35:22.755Z,51.63
2023-05-11T12:36:22.779Z,52.22
2023-05-11T12:37:22.773Z,52.23
2023-05-11T12:38:22.764Z,53.14
2023-05-11T12:39:22.775Z,53.07
2023-05-11T12:40:22.789Z,52.85
2023-05-11T12:41:22.819Z,53.60
2023-05-11T12:42:22.708Z,52.82
2023-05-11T12:43:22.823Z,53.17
2023-05-11T12:44:23.107Z,53.89
2023-05-11T12:45:22.799Z,53.06
2023-05-11T12:46:22.727Z,51.97
2023-05-11T12:47:22.723Z,52.42
2023-05-11T12:48:22.821Z,52.42
2023-05-11T12:50:22.828Z,52.50
2023-05-11T12:51:22.656Z,53.40
2023-05-11T12:52:22.648Z,52.13
2023-05-11T12:53:22.821Z,51.47
2023-05-11T12:54:22.790Z,51.64
2023-05-11T12:55:22.681Z,52.21